DTMBLXGB

Guest
Details From DTMB - Monastir Habib Bourguiba Intl
To LXGB - Gibraltar
Flight Number -
Tags Generated
Created
Modified
Stats Distance 795 nm / 1,473 km
Max Altitude 0 ft / 0 m
Waypoints 5
Social Downloads 0
Likes 0
Share VATSIM

Download

Looking for another format? Having issues loading an existing format? Contact us
Advertisement - Login to hide

Notes

Generated

Route

DTMB TAGRO ARZEW GALTO LXGB

ID Type Via Altitude Latitude Longitude Leg Dist Tot Dist Heading (true) Name
O DTMB APT - 0 ft / 0 m 35.75411˚ 10.73844˚ - 0 nm - -
TAGRO FIX - 0 ft / 0 m 36.21611˚ 5.00000˚ 280 nm 280 nm 277° / 274° -
ARZEW FIX - 0 ft / 0 m 36.03333˚ -0.20000˚ 252 nm 532 nm 269° / 266° -
GALTO FIX - 0 ft / 0 m 35.83333˚ -5.14361˚ 240 nm 773 nm 269° / 266° -
O LXGB APT - 0 ft / 0 m 36.15080˚ -5.35977˚ 21 nm 795 nm 331° / 331° -

Altitude Profile

Advertisement - Login to hide

Weather


0- 5 10 15 20 25 30 35+ Temperature / ° C

Clouds and Precipitation
Forecast for 2017-12-12 18:00 UTC. Updated 44 minutes ago

Ground ~20,000 ft ~40,000 ft Winds

DTMB

Details ICAO DTMB (MIR)
Name Monastir Habib Bourguiba Intl
Region Tunisia
Timezone Africa/Tunis (UTC+1.0)
Stats Elevation 9 ft / 3 m (AMSL)
Location 35.757843° 10.754025°
Runways 1
Magnetic Variation 2.432° E

METAR

DTMB 121800Z 15011KT CAVOK 16/08 Q1018

Decode

TAF

TAF DTMB 121710Z 1218/1318 14010KT CAVOK TEMPO 1220/1224 18022KT BECMG 1302/1304 24008KT

Decode

Departure Runways

ID Width Length Bearing (true) Bearing (mag) Surface Threshold Offset Overrun Length
07 148 ft / 45 m 9,627 ft / 2,934 m 73.54° 71.11° Asphalt 0 ft / 0 m 164 ft / 50 m
25 148 ft / 45 m 9,627 ft / 2,934 m 253.56° 251.13° Asphalt 0 ft / 0 m 164 ft / 50 m

LXGB

Details ICAO LXGB (GIB)
Name Gibraltar
Region Gibralter
Timezone Europe/Gibraltar (UTC+1.0)
Stats Elevation 15 ft / 5 m (AMSL)
Location 36.151209° -5.349664°
Runways 1
Magnetic Variation 1.123° W

METAR

LXGB 121750Z AUTO 06003KT 9999 // NCD 13/04 Q1019

Decode

TAF

Not found

Destination Runways

ID Width Length Bearing (true) Bearing (mag) Surface Threshold Offset Overrun Length
27 151 ft / 46 m 5,992 ft / 1,826 m 267.56° 268.68° Asphalt 367 ft / 112 m 89 ft / 27 m
9 151 ft / 46 m 5,992 ft / 1,826 m 87.54° 88.66° Asphalt 299 ft / 91 m 52 ft / 16 m